GMMX/RAK METAR and TAF weather

Enter ICAO airport designator
Station Type Date Time Source
GMMX METAR 2018/04/21 11:30 UTC NOAA

GMMX 211130Z 36004KT 270V080 9999 BKN020 SCT100 15/05 Q1013 NOSIG


Station Type Date Time Source
GMMX Decoded METAR 2018/04/21 11:30 UTC NOAA

Marrakech, Morocco (GMMX) 31-37N 008-02W 466M
Apr 21, 2018 - 07:30 AM EDT / 2018.04.21 1130 UTC
Wind: from the N (360 degrees) at 5 MPH (4 KT) (direction variable):0
Visibility: greater than 7 mile(s):0
Sky conditions: mostly cloudy
Temperature: 59 F (15 C)
Dew Point: 41 F (5 C)
Relative Humidity: 51%
Pressure (altimeter): 29.91 in. Hg (1013 hPa)
ob: GMMX 211130Z 36004KT 270V080 9999 BKN020 SCT100 15/05 Q1013 NOSIG
cycle: 11

Station Type Date Time Source
GMMX TAF 2018/04/21 12:18 UTC NOAA

TAF GMMX 211100Z 2112/2218 32004KT 8000 BKN023 SCT100
TEMPO 2115/2121 28014KT


Example: see airport list